sensor_id;sensor_type;location;lat;lon;timestamp;temperature;humidity
3868;DHT22;1949;48.152;11.528;2023-09-07T00:00:59;25.00;42.40
3868;DHT22;1949;48.152;11.528;2023-09-07T00:03:26;25.00;42.40
3868;DHT22;1949;48.152;11.528;2023-09-07T00:05:52;25.00;42.50
3868;DHT22;1949;48.152;11.528;2023-09-07T00:08:17;25.00;42.50
3868;DHT22;1949;48.152;11.528;2023-09-07T00:10:46;25.00;42.50
3868;DHT22;1949;48.152;11.528;2023-09-07T00:13:12;25.00;42.60
3868;DHT22;1949;48.152;11.528;2023-09-07T00:15:38;24.90;42.50
3868;DHT22;1949;48.152;11.528;2023-09-07T00:18:04;24.90;42.70
3868;DHT22;1949;48.152;11.528;2023-09-07T00:20:30;24.90;42.70
3868;DHT22;1949;48.152;11.528;2023-09-07T00:22:56;24.90;42.70
3868;DHT22;1949;48.152;11.528;2023-09-07T00:25:23;24.90;42.70
3868;DHT22;1949;48.152;11.528;2023-09-07T00:27:49;24.90;42.80
3868;DHT22;1949;48.152;11.528;2023-09-07T00:30:17;24.90;42.90
3868;DHT22;1949;48.152;11.528;2023-09-07T00:32:45;24.90;42.90
3868;DHT22;1949;48.152;11.528;2023-09-07T00:35:11;24.80;42.90
3868;DHT22;1949;48.152;11.528;2023-09-07T00:37:37;24.80;42.90
3868;DHT22;1949;48.152;11.528;2023-09-07T00:40:04;24.80;42.90
3868;DHT22;1949;48.152;11.528;2023-09-07T00:42:36;24.80;42.90
3868;DHT22;1949;48.152;11.528;2023-09-07T00:45:04;24.80;43.00
3868;DHT22;1949;48.152;11.528;2023-09-07T00:47:34;24.80;43.10
3868;DHT22;1949;48.152;11.528;2023-09-07T00:50:02;24.80;43.10
3868;DHT22;1949;48.152;11.528;2023-09-07T00:52:29;24.70;43.00
3868;DHT22;1949;48.152;11.528;2023-09-07T00:54:55;24.70;43.10
3868;DHT22;1949;48.152;11.528;2023-09-07T00:57:40;24.70;43.10
3868;DHT22;1949;48.152;11.528;2023-09-07T01:00:09;24.70;43.00
3868;DHT22;1949;48.152;11.528;2023-09-07T01:02:35;24.70;43.20
3868;DHT22;1949;48.152;11.528;2023-09-07T01:05:04;24.70;43.20
3868;DHT22;1949;48.152;11.528;2023-09-07T01:07:35;24.70;43.30
3868;DHT22;1949;48.152;11.528;2023-09-07T01:10:03;24.70;43.30
3868;DHT22;1949;48.152;11.528;2023-09-07T01:12:30;24.60;43.20
3868;DHT22;1949;48.152;11.528;2023-09-07T01:14:56;24.60;43.30
3868;DHT22;1949;48.152;11.528;2023-09-07T01:17:22;24.60;43.30
3868;DHT22;1949;48.152;11.528;2023-09-07T01:19:52;24.60;43.90
3868;DHT22;1949;48.152;11.528;2023-09-07T01:22:20;24.60;43.40
3868;DHT22;1949;48.152;11.528;2023-09-07T01:24:49;24.60;43.40
3868;DHT22;1949;48.152;11.528;2023-09-07T01:27:16;24.60;43.50
3868;DHT22;1949;48.152;11.528;2023-09-07T01:29:42;24.60;43.60
3868;DHT22;1949;48.152;11.528;2023-09-07T01:32:07;24.50;43.50
3868;DHT22;1949;48.152;11.528;2023-09-07T01:34:35;24.50;43.60
3868;DHT22;1949;48.152;11.528;2023-09-07T01:37:01;24.50;43.60
3868;DHT22;1949;48.152;11.528;2023-09-07T01:39:27;24.50;43.60
3868;DHT22;1949;48.152;11.528;2023-09-07T01:41:53;24.50;43.60
3868;DHT22;1949;48.152;11.528;2023-09-07T01:44:19;24.50;44.30
3868;DHT22;1949;48.152;11.528;2023-09-07T01:46:45;24.40;43.60
3868;DHT22;1949;48.152;11.528;2023-09-07T01:49:11;24.40;43.70
3868;DHT22;1949;48.152;11.528;2023-09-07T01:51:36;24.40;43.80
3868;DHT22;1949;48.152;11.528;2023-09-07T01:54:02;24.40;43.80
3868;DHT22;1949;48.152;11.528;2023-09-07T01:56:28;24.40;43.80
3868;DHT22;1949;48.152;11.528;2023-09-07T01:58:54;24.40;43.80
3868;DHT22;1949;48.152;11.528;2023-09-07T02:01:31;24.40;43.80
3868;DHT22;1949;48.152;11.528;2023-09-07T02:03:59;24.40;43.80
3868;DHT22;1949;48.152;11.528;2023-09-07T02:06:25;24.30;43.80
3868;DHT22;1949;48.152;11.528;2023-09-07T02:08:50;24.30;43.80
3868;DHT22;1949;48.152;11.528;2023-09-07T02:11:16;24.30;43.80
3868;DHT22;1949;48.152;11.528;2023-09-07T02:13:42;24.30;43.90
3868;DHT22;1949;48.152;11.528;2023-09-07T02:16:09;24.30;43.90
3868;DHT22;1949;48.152;11.528;2023-09-07T02:18:36;24.30;43.90
3868;DHT22;1949;48.152;11.528;2023-09-07T02:21:04;24.30;44.00
3868;DHT22;1949;48.152;11.528;2023-09-07T02:23:32;24.30;44.00
3868;DHT22;1949;48.152;11.528;2023-09-07T02:25:59;24.20;44.00
3868;DHT22;1949;48.152;11.528;2023-09-07T02:28:26;24.20;44.00
3868;DHT22;1949;48.152;11.528;2023-09-07T02:30:52;24.20;44.10
3868;DHT22;1949;48.152;11.528;2023-09-07T02:33:18;24.20;44.10
3868;DHT22;1949;48.152;11.528;2023-09-07T02:35:47;24.20;44.20
3868;DHT22;1949;48.152;11.528;2023-09-07T02:38:13;24.10;44.20
3868;DHT22;1949;48.152;11.528;2023-09-07T02:40:45;24.10;44.20
3868;DHT22;1949;48.152;11.528;2023-09-07T02:43:11;24.10;44.20
3868;DHT22;1949;48.152;11.528;2023-09-07T02:45:38;24.10;44.20
3868;DHT22;1949;48.152;11.528;2023-09-07T02:48:04;24.10;44.30
3868;DHT22;1949;48.152;11.528;2023-09-07T02:50:32;24.10;44.30
3868;DHT22;1949;48.152;11.528;2023-09-07T02:52:59;24.10;44.40
3868;DHT22;1949;48.152;11.528;2023-09-07T02:55:26;24.10;44.40
3868;DHT22;1949;48.152;11.528;2023-09-07T02:57:51;24.00;44.30
3868;DHT22;1949;48.152;11.528;2023-09-07T03:00:17;24.00;44.20
3868;DHT22;1949;48.152;11.528;2023-09-07T03:02:48;23.90;44.20
3868;DHT22;1949;48.152;11.528;2023-09-07T03:05:15;23.90;44.30
3868;DHT22;1949;48.152;11.528;2023-09-07T03:07:41;23.90;44.30
3868;DHT22;1949;48.152;11.528;2023-09-07T03:10:08;23.80;44.30
3868;DHT22;1949;48.152;11.528;2023-09-07T03:12:33;23.80;44.30
3868;DHT22;1949;48.152;11.528;2023-09-07T03:14:59;23.80;44.30
3868;DHT22;1949;48.152;11.528;2023-09-07T03:17:29;23.70;44.20
3868;DHT22;1949;48.152;11.528;2023-09-07T03:19:55;23.70;44.20
3868;DHT22;1949;48.152;11.528;2023-09-07T03:22:20;23.70;44.20
3868;DHT22;1949;48.152;11.528;2023-09-07T03:24:46;23.60;44.20
3868;DHT22;1949;48.152;11.528;2023-09-07T03:27:13;23.60;44.40
3868;DHT22;1949;48.152;11.528;2023-09-07T03:29:39;23.60;44.40
3868;DHT22;1949;48.152;11.528;2023-09-07T03:32:05;23.60;44.50
3868;DHT22;1949;48.152;11.528;2023-09-07T03:34:31;23.50;44.40
3868;DHT22;1949;48.152;11.528;2023-09-07T03:36:57;23.50;44.50
3868;DHT22;1949;48.152;11.528;2023-09-07T03:39:22;23.50;44.50
3868;DHT22;1949;48.152;11.528;2023-09-07T03:41:49;23.50;44.50
3868;DHT22;1949;48.152;11.528;2023-09-07T03:44:20;23.50;44.60
3868;DHT22;1949;48.152;11.528;2023-09-07T03:46:48;23.50;44.60
3868;DHT22;1949;48.152;11.528;2023-09-07T03:49:13;23.50;44.60
3868;DHT22;1949;48.152;11.528;2023-09-07T03:51:39;23.50;44.60
3868;DHT22;1949;48.152;11.528;2023-09-07T03:54:09;23.50;44.60
3868;DHT22;1949;48.152;11.528;2023-09-07T03:56:34;23.50;44.50
3868;DHT22;1949;48.152;11.528;2023-09-07T03:59:16;23.40;44.40
3868;DHT22;1949;48.152;11.528;2023-09-07T04:01:54;23.40;44.40
3868;DHT22;1949;48.152;11.528;2023-09-07T04:04:20;23.40;44.50
3868;DHT22;1949;48.152;11.528;2023-09-07T04:06:54;23.40;44.60
3868;DHT22;1949;48.152;11.528;2023-09-07T04:09:21;23.40;44.60
3868;DHT22;1949;48.152;11.528;2023-09-07T04:11:47;23.40;44.60
3868;DHT22;1949;48.152;11.528;2023-09-07T04:14:12;23.30;44.50
3868;DHT22;1949;48.152;11.528;2023-09-07T04:16:39;23.30;44.60
3868;DHT22;1949;48.152;11.528;2023-09-07T04:19:05;23.30;44.60
3868;DHT22;1949;48.152;11.528;2023-09-07T04:21:30;23.30;44.70
3868;DHT22;1949;48.152;11.528;2023-09-07T04:23:57;23.30;44.70
3868;DHT22;1949;48.152;11.528;2023-09-07T04:26:30;23.30;44.70
3868;DHT22;1949;48.152;11.528;2023-09-07T04:28:57;23.30;44.70
3868;DHT22;1949;48.152;11.528;2023-09-07T04:31:23;23.30;44.70
3868;DHT22;1949;48.152;11.528;2023-09-07T04:33:53;23.30;45.40
3868;DHT22;1949;48.152;11.528;2023-09-07T04:36:22;23.30;44.80
3868;DHT22;1949;48.152;11.528;2023-09-07T04:38:48;23.20;44.70
3868;DHT22;1949;48.152;11.528;2023-09-07T04:41:15;23.30;45.00
3868;DHT22;1949;48.152;11.528;2023-09-07T04:43:44;23.20;44.80
3868;DHT22;1949;48.152;11.528;2023-09-07T04:46:14;23.30;45.00
3868;DHT22;1949;48.152;11.528;2023-09-07T04:48:49;23.20;44.80
3868;DHT22;1949;48.152;11.528;2023-09-07T04:51:16;23.30;44.90
3868;DHT22;1949;48.152;11.528;2023-09-07T04:53:42;23.20;44.90
3868;DHT22;1949;48.152;11.528;2023-09-07T04:56:08;23.20;44.90
3868;DHT22;1949;48.152;11.528;2023-09-07T04:58:34;23.20;44.90
3868;DHT22;1949;48.152;11.528;2023-09-07T05:01:09;23.20;44.90
3868;DHT22;1949;48.152;11.528;2023-09-07T05:03:37;23.20;44.90
3868;DHT22;1949;48.152;11.528;2023-09-07T05:06:04;23.20;45.10
3868;DHT22;1949;48.152;11.528;2023-09-07T05:08:31;23.20;45.10
3868;DHT22;1949;48.152;11.528;2023-09-07T05:11:03;23.10;45.10
3868;DHT22;1949;48.152;11.528;2023-09-07T05:13:30;23.20;45.10
3868;DHT22;1949;48.152;11.528;2023-09-07T05:15:58;23.10;45.10
3868;DHT22;1949;48.152;11.528;2023-09-07T05:18:24;23.10;45.10
3868;DHT22;1949;48.152;11.528;2023-09-07T05:20:50;23.10;45.10
3868;DHT22;1949;48.152;11.528;2023-09-07T05:23:20;23.10;45.20
3868;DHT22;1949;48.152;11.528;2023-09-07T05:25:47;23.10;45.20
3868;DHT22;1949;48.152;11.528;2023-09-07T05:28:15;23.10;45.20
3868;DHT22;1949;48.152;11.528;2023-09-07T05:30:49;23.10;45.20
3868;DHT22;1949;48.152;11.528;2023-09-07T05:33:17;23.10;45.30
3868;DHT22;1949;48.152;11.528;2023-09-07T05:35:44;23.10;45.30
3868;DHT22;1949;48.152;11.528;2023-09-07T05:38:20;23.10;45.30
3868;DHT22;1949;48.152;11.528;2023-09-07T05:40:47;23.10;45.40
3868;DHT22;1949;48.152;11.528;2023-09-07T05:43:15;23.10;45.40
3868;DHT22;1949;48.152;11.528;2023-09-07T05:45:43;23.10;45.50
3868;DHT22;1949;48.152;11.528;2023-09-07T05:48:09;23.10;45.60
3868;DHT22;1949;48.152;11.528;2023-09-07T05:50:40;23.10;45.50
3868;DHT22;1949;48.152;11.528;2023-09-07T05:53:07;23.10;45.60
3868;DHT22;1949;48.152;11.528;2023-09-07T05:55:33;23.10;45.60
3868;DHT22;1949;48.152;11.528;2023-09-07T05:57:59;23.10;45.60
3868;DHT22;1949;48.152;11.528;2023-09-07T06:00:28;23.10;45.70
3868;DHT22;1949;48.152;11.528;2023-09-07T06:02:56;23.20;45.80
3868;DHT22;1949;48.152;11.528;2023-09-07T06:05:22;23.20;45.80
3868;DHT22;1949;48.152;11.528;2023-09-07T06:07:48;23.20;45.70
3868;DHT22;1949;48.152;11.528;2023-09-07T06:10:20;23.20;45.80
3868;DHT22;1949;48.152;11.528;2023-09-07T06:12:47;23.20;45.80
3868;DHT22;1949;48.152;11.528;2023-09-07T06:15:13;23.20;45.80
3868;DHT22;1949;48.152;11.528;2023-09-07T06:17:39;23.20;45.80
3868;DHT22;1949;48.152;11.528;2023-09-07T06:20:05;23.20;45.70
3868;DHT22;1949;48.152;11.528;2023-09-07T06:22:32;23.20;45.80
3868;DHT22;1949;48.152;11.528;2023-09-07T06:25:00;23.20;45.70
3868;DHT22;1949;48.152;11.528;2023-09-07T06:27:26;23.30;45.90
3868;DHT22;1949;48.152;11.528;2023-09-07T06:29:53;23.20;45.90
3868;DHT22;1949;48.152;11.528;2023-09-07T06:32:36;23.20;45.90
3868;DHT22;1949;48.152;11.528;2023-09-07T06:35:06;23.30;45.90
3868;DHT22;1949;48.152;11.528;2023-09-07T06:37:32;23.30;46.00
3868;DHT22;1949;48.152;11.528;2023-09-07T06:39:58;23.30;46.00
3868;DHT22;1949;48.152;11.528;2023-09-07T06:42:24;23.30;46.00
3868;DHT22;1949;48.152;11.528;2023-09-07T06:44:49;23.30;46.00
3868;DHT22;1949;48.152;11.528;2023-09-07T06:47:17;23.30;45.90
3868;DHT22;1949;48.152;11.528;2023-09-07T06:49:42;23.30;45.90
3868;DHT22;1949;48.152;11.528;2023-09-07T06:52:09;23.30;46.00
3868;DHT22;1949;48.152;11.528;2023-09-07T06:54:36;23.30;46.00
3868;DHT22;1949;48.152;11.528;2023-09-07T06:57:08;23.30;46.00
3868;DHT22;1949;48.152;11.528;2023-09-07T06:59:34;23.40;46.10
3868;DHT22;1949;48.152;11.528;2023-09-07T07:02:07;23.40;46.10
3868;DHT22;1949;48.152;11.528;2023-09-07T07:04:35;23.40;46.10
3868;DHT22;1949;48.152;11.528;2023-09-07T07:07:01;23.50;46.10
3868;DHT22;1949;48.152;11.528;2023-09-07T07:09:31;23.50;46.00
3868;DHT22;1949;48.152;11.528;2023-09-07T07:11:58;23.50;46.00
3868;DHT22;1949;48.152;11.528;2023-09-07T07:14:24;23.50;46.70
3868;DHT22;1949;48.152;11.528;2023-09-07T07:16:50;23.50;46.00
3868;DHT22;1949;48.152;11.528;2023-09-07T07:19:16;23.50;46.00
3868;DHT22;1949;48.152;11.528;2023-09-07T07:21:42;23.60;46.00
3868;DHT22;1949;48.152;11.528;2023-09-07T07:24:09;23.60;46.00
3868;DHT22;1949;48.152;11.528;2023-09-07T07:26:35;23.60;46.00
3868;DHT22;1949;48.152;11.528;2023-09-07T07:29:02;23.60;46.10
3868;DHT22;1949;48.152;11.528;2023-09-07T07:31:29;23.60;46.00
3868;DHT22;1949;48.152;11.528;2023-09-07T07:33:57;23.60;46.10
3868;DHT22;1949;48.152;11.528;2023-09-07T07:36:32;23.70;46.20
3868;DHT22;1949;48.152;11.528;2023-09-07T07:38:57;23.70;46.20
3868;DHT22;1949;48.152;11.528;2023-09-07T07:41:26;23.70;46.10
3868;DHT22;1949;48.152;11.528;2023-09-07T07:43:52;23.70;46.20
3868;DHT22;1949;48.152;11.528;2023-09-07T07:46:17;23.70;46.10
3868;DHT22;1949;48.152;11.528;2023-09-07T07:48:45;23.80;46.20
3868;DHT22;1949;48.152;11.528;2023-09-07T07:51:10;23.80;46.10
3868;DHT22;1949;48.152;11.528;2023-09-07T07:53:36;23.80;46.10
3868;DHT22;1949;48.152;11.528;2023-09-07T07:56:04;23.90;46.20
3868;DHT22;1949;48.152;11.528;2023-09-07T07:58:43;23.90;46.20
3868;DHT22;1949;48.152;11.528;2023-09-07T08:01:18;23.90;46.20
3868;DHT22;1949;48.152;11.528;2023-09-07T08:03:44;23.90;46.20
3868;DHT22;1949;48.152;11.528;2023-09-07T08:06:10;23.90;46.20
3868;DHT22;1949;48.152;11.528;2023-09-07T08:08:38;23.90;46.20
3868;DHT22;1949;48.152;11.528;2023-09-07T08:11:08;23.90;46.20
3868;DHT22;1949;48.152;11.528;2023-09-07T08:13:35;23.90;46.20
3868;DHT22;1949;48.152;11.528;2023-09-07T08:16:02;23.90;46.20
3868;DHT22;1949;48.152;11.528;2023-09-07T08:18:34;23.90;46.90
3868;DHT22;1949;48.152;11.528;2023-09-07T08:21:04;24.00;46.50
3868;DHT22;1949;48.152;11.528;2023-09-07T08:23:30;24.00;46.40
3868;DHT22;1949;48.152;11.528;2023-09-07T08:25:56;24.00;46.30
3868;DHT22;1949;48.152;11.528;2023-09-07T08:28:22;24.00;46.40
3868;DHT22;1949;48.152;11.528;2023-09-07T08:30:54;24.00;46.30
3868;DHT22;1949;48.152;11.528;2023-09-07T08:33:21;24.10;46.50
3868;DHT22;1949;48.152;11.528;2023-09-07T08:35:53;24.10;46.40
3868;DHT22;1949;48.152;11.528;2023-09-07T08:38:23;24.10;46.40
3868;DHT22;1949;48.152;11.528;2023-09-07T08:40:54;24.10;46.40
3868;DHT22;1949;48.152;11.528;2023-09-07T08:43:21;24.10;46.40
3868;DHT22;1949;48.152;11.528;2023-09-07T08:46:23;24.10;46.30
3868;DHT22;1949;48.152;11.528;2023-09-07T08:49:00;24.20;46.40
3868;DHT22;1949;48.152;11.528;2023-09-07T08:51:31;24.20;46.50
3868;DHT22;1949;48.152;11.528;2023-09-07T08:54:01;24.20;47.10
3868;DHT22;1949;48.152;11.528;2023-09-07T08:56:28;24.20;46.50
3868;DHT22;1949;48.152;11.528;2023-09-07T08:58:53;24.20;46.50
3868;DHT22;1949;48.152;11.528;2023-09-07T09:01:23;24.20;46.50
3868;DHT22;1949;48.152;11.528;2023-09-07T09:03:50;24.30;46.60
3868;DHT22;1949;48.152;11.528;2023-09-07T09:06:18;24.30;46.60
3868;DHT22;1949;48.152;11.528;2023-09-07T09:08:49;24.30;46.50
3868;DHT22;1949;48.152;11.528;2023-09-07T09:11:19;24.30;46.70
3868;DHT22;1949;48.152;11.528;2023-09-07T09:13:47;24.30;46.70
3868;DHT22;1949;48.152;11.528;2023-09-07T09:16:14;24.40;46.60
3868;DHT22;1949;48.152;11.528;2023-09-07T09:21:21;24.40;46.90
3868;DHT22;1949;48.152;11.528;2023-09-07T09:23:49;24.40;46.80
3868;DHT22;1949;48.152;11.528;2023-09-07T09:26:16;24.40;46.90
3868;DHT22;1949;48.152;11.528;2023-09-07T09:28:42;24.50;47.00
3868;DHT22;1949;48.152;11.528;2023-09-07T09:31:09;24.50;47.00
3868;DHT22;1949;48.152;11.528;2023-09-07T09:33:39;24.50;47.00
3868;DHT22;1949;48.152;11.528;2023-09-07T09:36:06;24.50;47.00
3868;DHT22;1949;48.152;11.528;2023-09-07T09:38:32;24.50;47.00
3868;DHT22;1949;48.152;11.528;2023-09-07T09:40:59;24.60;47.10
3868;DHT22;1949;48.152;11.528;2023-09-07T09:43:27;24.60;47.10
3868;DHT22;1949;48.152;11.528;2023-09-07T09:45:55;24.60;47.20
3868;DHT22;1949;48.152;11.528;2023-09-07T09:48:22;24.60;47.10
3868;DHT22;1949;48.152;11.528;2023-09-07T09:50:49;24.60;47.10
3868;DHT22;1949;48.152;11.528;2023-09-07T09:53:20;24.70;47.20
3868;DHT22;1949;48.152;11.528;2023-09-07T09:55:47;24.70;47.20
3868;DHT22;1949;48.152;11.528;2023-09-07T09:58:14;24.70;47.10
3868;DHT22;1949;48.152;11.528;2023-09-07T10:00:48;24.70;47.10
3868;DHT22;1949;48.152;11.528;2023-09-07T10:03:24;24.70;47.10
3868;DHT22;1949;48.152;11.528;2023-09-07T10:05:52;24.80;47.30
3868;DHT22;1949;48.152;11.528;2023-09-07T10:08:19;24.70;47.20
3868;DHT22;1949;48.152;11.528;2023-09-07T10:10:53;24.80;47.30
3868;DHT22;1949;48.152;11.528;2023-09-07T10:13:31;24.80;47.30
3868;DHT22;1949;48.152;11.528;2023-09-07T10:16:04;24.80;47.30
3868;DHT22;1949;48.152;11.528;2023-09-07T10:18:34;24.80;47.60
3868;DHT22;1949;48.152;11.528;2023-09-07T10:21:06;24.80;47.40
3868;DHT22;1949;48.152;11.528;2023-09-07T10:23:40;24.90;47.60
3868;DHT22;1949;48.152;11.528;2023-09-07T10:26:16;24.90;47.50
3868;DHT22;1949;48.152;11.528;2023-09-07T10:28:45;24.90;47.40
3868;DHT22;1949;48.152;11.528;2023-09-07T10:31:17;24.90;47.50
3868;DHT22;1949;48.152;11.528;2023-09-07T10:33:45;24.90;47.50
3868;DHT22;1949;48.152;11.528;2023-09-07T10:36:25;24.90;47.50
3868;DHT22;1949;48.152;11.528;2023-09-07T10:38:55;25.00;47.60
3868;DHT22;1949;48.152;11.528;2023-09-07T10:41:22;25.00;47.70
3868;DHT22;1949;48.152;11.528;2023-09-07T10:43:49;25.00;47.60
3868;DHT22;1949;48.152;11.528;2023-09-07T10:46:25;25.00;47.60
3868;DHT22;1949;48.152;11.528;2023-09-07T10:48:53;25.10;47.60
3868;DHT22;1949;48.152;11.528;2023-09-07T10:51:20;25.00;47.50
3868;DHT22;1949;48.152;11.528;2023-09-07T10:53:47;25.10;47.60
3868;DHT22;1949;48.152;11.528;2023-09-07T10:56:17;25.10;47.70
3868;DHT22;1949;48.152;11.528;2023-09-07T10:58:42;25.10;47.60
3868;DHT22;1949;48.152;11.528;2023-09-07T11:01:11;25.20;47.70
3868;DHT22;1949;48.152;11.528;2023-09-07T11:03:40;25.20;47.70
3868;DHT22;1949;48.152;11.528;2023-09-07T11:06:12;25.20;47.70
3868;DHT22;1949;48.152;11.528;2023-09-07T11:08:41;25.20;47.70
3868;DHT22;1949;48.152;11.528;2023-09-07T11:11:08;25.20;47.70
3868;DHT22;1949;48.152;11.528;2023-09-07T11:13:34;25.20;47.70
3868;DHT22;1949;48.152;11.528;2023-09-07T11:16:05;25.30;47.80
3868;DHT22;1949;48.152;11.528;2023-09-07T11:18:50;25.30;47.70
3868;DHT22;1949;48.152;11.528;2023-09-07T11:21:17;25.30;47.60
3868;DHT22;1949;48.152;11.528;2023-09-07T11:23:45;25.30;47.60
3868;DHT22;1949;48.152;11.528;2023-09-07T11:26:11;25.30;47.70
3868;DHT22;1949;48.152;11.528;2023-09-07T11:28:38;25.40;47.80
3868;DHT22;1949;48.152;11.528;2023-09-07T11:31:06;25.40;47.80
3868;DHT22;1949;48.152;11.528;2023-09-07T11:33:35;25.40;47.80
3868;DHT22;1949;48.152;11.528;2023-09-07T11:36:02;25.40;47.70
3868;DHT22;1949;48.152;11.528;2023-09-07T11:38:36;25.50;47.60
3868;DHT22;1949;48.152;11.528;2023-09-07T11:41:03;25.50;47.60
3868;DHT22;1949;48.152;11.528;2023-09-07T11:43:29;25.50;47.50
3868;DHT22;1949;48.152;11.528;2023-09-07T11:45:54;25.60;47.60
3868;DHT22;1949;48.152;11.528;2023-09-07T11:48:20;25.70;47.60
3868;DHT22;1949;48.152;11.528;2023-09-07T11:50:46;25.70;47.50
3868;DHT22;1949;48.152;11.528;2023-09-07T11:53:12;25.80;47.40
3868;DHT22;1949;48.152;11.528;2023-09-07T11:55:40;25.90;47.40
3868;DHT22;1949;48.152;11.528;2023-09-07T11:58:07;25.90;47.20
3868;DHT22;1949;48.152;11.528;2023-09-07T12:00:39;26.10;47.20
3868;DHT22;1949;48.152;11.528;2023-09-07T12:03:24;26.10;47.10
3868;DHT22;1949;48.152;11.528;2023-09-07T12:06:02;26.30;47.10
3868;DHT22;1949;48.152;11.528;2023-09-07T12:08:28;26.30;46.90
3868;DHT22;1949;48.152;11.528;2023-09-07T12:10:54;26.50;46.80
3868;DHT22;1949;48.152;11.528;2023-09-07T12:13:19;26.50;46.60
3868;DHT22;1949;48.152;11.528;2023-09-07T12:15:45;26.60;46.50
3868;DHT22;1949;48.152;11.528;2023-09-07T12:18:11;26.70;46.30
3868;DHT22;1949;48.152;11.528;2023-09-07T12:20:36;26.80;46.30
3868;DHT22;1949;48.152;11.528;2023-09-07T12:23:02;26.90;46.70
3868;DHT22;1949;48.152;11.528;2023-09-07T12:25:28;27.00;46.00
3868;DHT22;1949;48.152;11.528;2023-09-07T12:27:54;27.10;45.90
3868;DHT22;1949;48.152;11.528;2023-09-07T12:30:20;27.10;45.80
3868;DHT22;1949;48.152;11.528;2023-09-07T12:32:48;27.30;46.20
3868;DHT22;1949;48.152;11.528;2023-09-07T12:35:15;27.30;45.40
3868;DHT22;1949;48.152;11.528;2023-09-07T12:37:42;27.40;45.40
3868;DHT22;1949;48.152;11.528;2023-09-07T12:40:08;27.40;45.10
3868;DHT22;1949;48.152;11.528;2023-09-07T12:42:44;27.50;45.10
3868;DHT22;1949;48.152;11.528;2023-09-07T12:45:11;27.50;45.00
3868;DHT22;1949;48.152;11.528;2023-09-07T12:47:38;27.60;44.90
3868;DHT22;1949;48.152;11.528;2023-09-07T12:50:04;27.70;44.80
3868;DHT22;1949;48.152;11.528;2023-09-07T12:52:31;27.80;44.70
3868;DHT22;1949;48.152;11.528;2023-09-07T12:54:57;27.80;44.50
3868;DHT22;1949;48.152;11.528;2023-09-07T12:57:23;27.90;44.40
3868;DHT22;1949;48.152;11.528;2023-09-07T12:59:52;28.00;44.20
3868;DHT22;1949;48.152;11.528;2023-09-07T13:02:18;28.00;44.10
3868;DHT22;1949;48.152;11.528;2023-09-07T13:04:43;28.10;44.00
3868;DHT22;1949;48.152;11.528;2023-09-07T13:07:09;28.10;43.90
3868;DHT22;1949;48.152;11.528;2023-09-07T13:09:36;28.20;43.80
3868;DHT22;1949;48.152;11.528;2023-09-07T13:12:01;28.30;43.70
3868;DHT22;1949;48.152;11.528;2023-09-07T13:14:27;28.30;43.50
3868;DHT22;1949;48.152;11.528;2023-09-07T13:16:53;28.30;43.30
3868;DHT22;1949;48.152;11.528;2023-09-07T13:19:22;28.30;43.20
3868;DHT22;1949;48.152;11.528;2023-09-07T13:21:48;28.40;43.20
3868;DHT22;1949;48.152;11.528;2023-09-07T13:24:41;28.50;43.10
3868;DHT22;1949;48.152;11.528;2023-09-07T13:27:06;28.60;43.20
3868;DHT22;1949;48.152;11.528;2023-09-07T13:29:36;28.70;42.90
3868;DHT22;1949;48.152;11.528;2023-09-07T13:32:06;28.70;42.60
3868;DHT22;1949;48.152;11.528;2023-09-07T13:34:35;28.80;42.50
3868;DHT22;1949;48.152;11.528;2023-09-07T13:37:02;28.90;42.50
3868;DHT22;1949;48.152;11.528;2023-09-07T13:39:30;29.00;42.20
3868;DHT22;1949;48.152;11.528;2023-09-07T13:42:03;29.10;42.00
3868;DHT22;1949;48.152;11.528;2023-09-07T13:44:28;29.20;41.70
3868;DHT22;1949;48.152;11.528;2023-09-07T13:46:54;29.40;41.40
3868;DHT22;1949;48.152;11.528;2023-09-07T13:49:20;29.40;41.00
3868;DHT22;1949;48.152;11.528;2023-09-07T13:51:46;29.50;40.90
3868;DHT22;1949;48.152;11.528;2023-09-07T13:54:11;29.50;40.70
3868;DHT22;1949;48.152;11.528;2023-09-07T13:56:38;29.60;40.40
3868;DHT22;1949;48.152;11.528;2023-09-07T13:59:05;29.60;40.10
3868;DHT22;1949;48.152;11.528;2023-09-07T14:01:37;29.70;40.00
3868;DHT22;1949;48.152;11.528;2023-09-07T14:04:20;29.80;39.80
3868;DHT22;1949;48.152;11.528;2023-09-07T14:06:45;29.80;40.00
3868;DHT22;1949;48.152;11.528;2023-09-07T14:09:13;29.90;39.50
3868;DHT22;1949;48.152;11.528;2023-09-07T14:11:49;30.00;39.20
3868;DHT22;1949;48.152;11.528;2023-09-07T14:14:19;30.10;39.20
3868;DHT22;1949;48.152;11.528;2023-09-07T14:16:46;30.10;38.80
3868;DHT22;1949;48.152;11.528;2023-09-07T14:19:41;30.20;38.60
3868;DHT22;1949;48.152;11.528;2023-09-07T14:22:06;30.30;39.10
3868;DHT22;1949;48.152;11.528;2023-09-07T14:24:51;30.30;38.50
3868;DHT22;1949;48.152;11.528;2023-09-07T14:27:17;30.40;38.70
3868;DHT22;1949;48.152;11.528;2023-09-07T14:29:42;30.50;38.10
3868;DHT22;1949;48.152;11.528;2023-09-07T14:32:09;30.50;37.90
3868;DHT22;1949;48.152;11.528;2023-09-07T14:34:36;30.60;37.80
3868;DHT22;1949;48.152;11.528;2023-09-07T14:37:05;30.70;37.70
3868;DHT22;1949;48.152;11.528;2023-09-07T14:39:31;30.80;37.60
3868;DHT22;1949;48.152;11.528;2023-09-07T14:41:57;30.90;37.50
3868;DHT22;1949;48.152;11.528;2023-09-07T14:44:28;31.00;37.10
3868;DHT22;1949;48.152;11.528;2023-09-07T14:46:54;31.00;37.00
3868;DHT22;1949;48.152;11.528;2023-09-07T14:49:20;31.10;37.00
3868;DHT22;1949;48.152;11.528;2023-09-07T14:51:46;31.20;36.90
3868;DHT22;1949;48.152;11.528;2023-09-07T14:54:12;31.30;36.80
3868;DHT22;1949;48.152;11.528;2023-09-07T14:56:38;31.40;36.50
3868;DHT22;1949;48.152;11.528;2023-09-07T14:59:05;31.60;36.30
3868;DHT22;1949;48.152;11.528;2023-09-07T15:01:31;31.80;36.30
3868;DHT22;1949;48.152;11.528;2023-09-07T15:03:57;31.90;36.00
3868;DHT22;1949;48.152;11.528;2023-09-07T15:06:23;32.00;35.80
3868;DHT22;1949;48.152;11.528;2023-09-07T15:08:48;32.10;35.50
3868;DHT22;1949;48.152;11.528;2023-09-07T15:11:16;32.20;35.40
3868;DHT22;1949;48.152;11.528;2023-09-07T15:13:41;32.20;35.00
3868;DHT22;1949;48.152;11.528;2023-09-07T15:16:07;32.20;34.70
3868;DHT22;1949;48.152;11.528;2023-09-07T15:18:34;32.10;34.70
3868;DHT22;1949;48.152;11.528;2023-09-07T15:21:00;32.00;34.60
3868;DHT22;1949;48.152;11.528;2023-09-07T15:23:26;31.80;34.60
3868;DHT22;1949;48.152;11.528;2023-09-07T15:25:52;31.60;34.70
3868;DHT22;1949;48.152;11.528;2023-09-07T15:28:18;31.40;34.70
3868;DHT22;1949;48.152;11.528;2023-09-07T15:30:44;31.20;34.80
3868;DHT22;1949;48.152;11.528;2023-09-07T15:33:10;30.90;35.00
3868;DHT22;1949;48.152;11.528;2023-09-07T15:35:35;30.70;35.30
3868;DHT22;1949;48.152;11.528;2023-09-07T15:38:01;30.50;35.30
3868;DHT22;1949;48.152;11.528;2023-09-07T15:40:27;30.20;35.50
3868;DHT22;1949;48.152;11.528;2023-09-07T15:42:54;30.00;35.70
3868;DHT22;1949;48.152;11.528;2023-09-07T15:45:20;29.90;36.00
3868;DHT22;1949;48.152;11.528;2023-09-07T15:47:45;29.70;36.10
3868;DHT22;1949;48.152;11.528;2023-09-07T15:50:12;29.60;36.10
3868;DHT22;1949;48.152;11.528;2023-09-07T15:52:46;29.50;36.10